^^
Station Historical Data
Daily Summary for January 17, 2017 Units:  Metric    English   Both
« Previous Day
Next Day »
Daily Weekly Monthly Yearly Custom
  High: Low: Average:
Temperature: 38.6 °C 22.3 °C 29.9 °C
Dew Point: 3.3 °C -14.2 °C -2.7 °C
Humidity: 27% 3% 14%
Wind Speed: 32km/h 0km/h 7.6km/h
Wind Gust: 37km/h - -
Wind- - SE
Pressure: 1007.3 hPa 1001.9 hPa -
Precipitation: 0 mm    
Historical Graphs
 
 
Tabular Data for January 17, 2017
Time Temperature Dew Point Pressure Wind Wind Speed Wind Gust Humidity Rainfall Rate (Hourly) solar Conditions
00:43 25.3 °C 3.3 °C 1007 hPa SSW 6.4 km/h 11.3 km/h 24% 0 mm 0.0 W/m2
01:24 24.3 °C 2.4 °C 1006.7 hPa Calm   4.8 km/h 24% 0 mm 0.0 W/m2
01:35 23.6 °C 2.4 °C 1006.7 hPa Calm     25% 0 mm 0.0 W/m2
01:45 22.8 °C 2.3 °C 1006.3 hPa Calm     26% 0 mm 0.0 W/m2
01:50 22.9 °C 2.9 °C 1006.3 hPa Calm     27% 0 mm 0.0 W/m2
02:10 23 °C 3 °C 1006.3 hPa Calm     27% 0 mm 0.0 W/m2
02:20 22.6 °C 2.7 °C 1006.3 hPa Calm     27% 0 mm 0.0 W/m2
02:26 22.3 °C 2.4 °C 1006 hPa Calm     27% 0 mm 0.0 W/m2
02:51 22.8 °C 0.6 °C 1005.6 hPa SSW 6.4 km/h 11.3 km/h 23% 0 mm 0.0 W/m2
03:02 24 °C -0.3 °C 1005.6 hPa Calm   6.4 km/h 20% 0 mm 0.0 W/m2
03:33 24.5 °C 0.1 °C 1005.6 hPa SSW 14.3 km/h 14.5 km/h 20% 0 mm 0.0 W/m2
03:38 24.7 °C 0.2 °C 1005.6 hPa Calm     20% 0 mm 0.0 W/m2
03:48 25.1 °C 0.6 °C 1005.6 hPa ESE 19.5 km/h 32.2 km/h 20% 0 mm 0.0 W/m2
03:58 25.4 °C 0.8 °C 1005.6 hPa ESE 28.8 km/h 37 km/h 20% 0 mm 0.0 W/m2
04:28 25.4 °C 1.5 °C 1005.6 hPa ESE 28.8 km/h 35.4 km/h 21% 0 mm 0.0 W/m2
04:33 25.3 °C 1.4 °C 1005.6 hPa ESE 17.7 km/h 30.6 km/h 21% 0 mm 0.0 W/m2
04:38 25.2 °C 1.3 °C 1005.6 hPa ESE 32 km/h 35.4 km/h 21% 0 mm 0.0 W/m2
04:49 25.1 °C 1.9 °C 1005.6 hPa ESE 28.8 km/h 33.8 km/h 22% 0 mm 0.0 W/m2
05:19 24.7 °C 2.2 °C 1006 hPa ESE 24.1 km/h 35.4 km/h 23% 0 mm 0.0 W/m2
05:39 24.1 °C 2.3 °C 1006.3 hPa East 19.5 km/h 25.7 km/h 24% 0 mm 0.0 W/m2
05:44 24.1 °C 2.3 °C 1006.3 hPa East 24.1 km/h 32.2 km/h 24% 0 mm 0.0 W/m2
05:54 24.3 °C 1.8 °C 1006.3 hPa East 22.7 km/h 32.2 km/h 23% 0 mm 0.0 W/m2
06:04 24.3 °C 1.8 °C 1006.3 hPa East 27.4 km/h 30.6 km/h 23% 0 mm 0.0 W/m2
06:25 24.2 °C 1.1 °C 1006.3 hPa ESE 20.9 km/h 25.7 km/h 22% 0 mm 12.0 W/m2
06:40 24.6 °C 1.5 °C 1006.7 hPa East 16.3 km/h 30.6 km/h 22% 0 mm 33.0 W/m2
07:00 25.1 °C 1.2 °C 1007 hPa East 19.5 km/h 24.1 km/h 21% 0 mm 97.0 W/m2
07:35 26.9 °C 0.6 °C 1007 hPa ESE 3.2 km/h 12.9 km/h 18% 0 mm 251.0 W/m2
07:40 27.2 °C 0.8 °C 1007 hPa ESE 9.7 km/h 12.9 km/h 18% 0 mm 271.0 W/m2
07:45 27.5 °C 0.3 °C 1007 hPa East 6.4 km/h 12.9 km/h 17% 0 mm 290.0 W/m2
07:50 28 °C -0.2 °C 1007 hPa East 7.9 km/h 20.9 km/h 16% 0 mm 309.0 W/m2
07:55 28.4 °C 0.2 °C 1007 hPa East 14.3 km/h 19.3 km/h 16% 0 mm 327.0 W/m2
08:11 29.2 °C -0.1 °C 1007 hPa East 4.7 km/h 17.7 km/h 15% 0 mm 383.0 W/m2
08:24 29.5 °C 0.1 °C 1007 hPa East 13 km/h 17.7 km/h 15% 0 mm 422.0 W/m2
09:05 30.7 °C 0.1 °C 1007.3 hPa East 16.3 km/h 22.5 km/h 14% 0 mm 563.0 W/m2
09:46 32.1 °C -2.1 °C 1007 hPa Calm   11.3 km/h 11% 0 mm 696.0 W/m2
10:51 33.3 °C -2.4 °C 1006.3 hPa NNW 7.9 km/h 11.3 km/h 10% 0 mm 875.0 W/m2
11:04 33.4 °C -2.4 °C 1006.3 hPa NNW 1.4 km/h 19.3 km/h 10% 0 mm 895.0 W/m2
12:44 35.7 °C -3.6 °C 1005.6 hPa NNW 1.4 km/h 11.3 km/h 8% 0 mm 1016.0 W/m2
13:45 37.1 °C -4.4 °C 1004.6 hPa Calm     7% 0 mm 1013.0 W/m2
13:59 37.6 °C -4 °C 1004.6 hPa Calm   11.3 km/h 7% 0 mm 997.0 W/m2
14:15 37.3 °C -4.3 °C 1003.9 hPa WNW 4.7 km/h 11.3 km/h 7% 0 mm 976.0 W/m2
15:47 38.2 °C -10.9 °C 1003.3 hPa SE 11.1 km/h 11.3 km/h 4% 0 mm 800.0 W/m2
15:57 38.5 °C -10.7 °C 1002.9 hPa SE 9.7 km/h 16.1 km/h 4% 0 mm 773.0 W/m2
16:32 38.5 °C -14.2 °C 1002.6 hPa SSE 7.9 km/h 11.3 km/h 3% 0 mm 666.0 W/m2
18:19 38.6 °C -10.6 °C 1001.9 hPa SSE 7.9 km/h 12.9 km/h 4% 0 mm 283.0 W/m2
18:45 38.2 °C -10.9 °C 1002.6 hPa SSE 9.7 km/h 11.3 km/h 4% 0 mm 156.0 W/m2
19:02 38.1 °C -10.9 °C 1002.3 hPa Calm     4% 0 mm 90.0 W/m2
19:07 38.1 °C -10.9 °C 1002.3 hPa Calm     4% 0 mm 74.0 W/m2
19:13 38.1 °C -10.9 °C 1002.6 hPa Calm     4% 0 mm 51.0 W/m2
19:24 37.7 °C -11.2 °C 1002.6 hPa Calm   3.2 km/h 4% 0 mm 18.0 W/m2
19:34 37.3 °C -11.5 °C 1002.6 hPa Calm     4% 0 mm 12.0 W/m2
19:48 36.9 °C -8.9 °C 1002.9 hPa Calm     5% 0 mm 7.0 W/m2
20:05 36 °C -9.6 °C 1002.9 hPa Calm     5% 0 mm 0.0 W/m2
20:12 35.1 °C -7.9 °C 1002.9 hPa Calm     6% 0 mm 0.0 W/m2
20:33 34.2 °C -6.5 °C 1003.3 hPa Calm     7% 0 mm 0.0 W/m2
20:54 33.2 °C -5.5 °C 1003.6 hPa Calm     8% 0 mm 0.0 W/m2
21:16 32.5 °C -6 °C 1003.6 hPa Calm     8% 0 mm 0.0 W/m2
21:36 32.8 °C -5.8 °C 1003.9 hPa Calm     8% 0 mm 0.0 W/m2
21:57 32.9 °C -5.7 °C 1003.9 hPa Calm     8% 0 mm 0.0 W/m2
22:13 32.7 °C -5.9 °C 1003.9 hPa Calm     8% 0 mm 0.0 W/m2
22:35 31.4 °C -5.3 °C 1003.9 hPa Calm     9% 0 mm 0.0 W/m2
22:43 31.8 °C -5 °C 1004.3 hPa Calm     9% 0 mm 0.0 W/m2
22:53 31.2 °C -5.4 °C 1004.3 hPa Calm     9% 0 mm 0.0 W/m2
23:07 30.4 °C -3.4 °C 1004.6 hPa Calm     11% 0 mm 0.0 W/m2
23:16 30.9 °C -3 °C 1004.6 hPa Calm   6.4 km/h 11% 0 mm 0.0 W/m2
Canyon Roadhouse, Fishriver Canyon, Namibia
Compliments of Weather Underground - 2 mb